sensor_id;sensor_type;location;lat;lon;timestamp;pressure;altitude;pressure_sealevel;temperature;humidity
78170;BME280;67412;49.892;14.490;2023-12-14T00:01:56;95945.75;;;4.53;100.00
78170;BME280;67412;49.892;14.490;2023-12-14T00:04:21;95943.25;;;4.49;100.00
78170;BME280;67412;49.892;14.490;2023-12-14T00:06:46;95945.88;;;4.41;100.00
78170;BME280;67412;49.892;14.490;2023-12-14T00:09:12;95951.78;;;4.45;100.00
78170;BME280;67412;49.892;14.490;2023-12-14T00:11:40;95942.44;;;4.44;100.00
78170;BME280;67412;49.892;14.490;2023-12-14T00:14:05;95948.28;;;4.50;100.00
78170;BME280;67412;49.892;14.490;2023-12-14T00:16:31;95952.47;;;4.57;100.00
78170;BME280;67412;49.892;14.490;2023-12-14T00:18:56;95947.38;;;4.57;100.00
78170;BME280;67412;49.892;14.490;2023-12-14T00:21:22;95958.44;;;4.53;100.00
78170;BME280;67412;49.892;14.490;2023-12-14T00:23:47;95958.56;;;4.44;100.00
78170;BME280;67412;49.892;14.490;2023-12-14T00:26:12;95962.78;;;4.45;100.00
78170;BME280;67412;49.892;14.490;2023-12-14T00:28:38;95956.88;;;4.43;100.00
78170;BME280;67412;49.892;14.490;2023-12-14T00:31:04;95960.16;;;4.53;100.00
78170;BME280;67412;49.892;14.490;2023-12-14T00:33:29;95957.63;;;4.51;100.00
78170;BME280;67412;49.892;14.490;2023-12-14T00:35:54;95963.59;;;4.47;100.00
78170;BME280;67412;49.892;14.490;2023-12-14T00:38:20;95974.59;;;4.49;100.00
78170;BME280;67412;49.892;14.490;2023-12-14T00:40:45;95975.41;;;4.51;100.00
78170;BME280;67412;49.892;14.490;2023-12-14T00:43:10;95978.81;;;4.52;100.00
78170;BME280;67412;49.892;14.490;2023-12-14T00:45:36;95986.44;;;4.53;100.00
78170;BME280;67412;49.892;14.490;2023-12-14T00:48:01;95987.25;;;4.54;100.00
78170;BME280;67412;49.892;14.490;2023-12-14T00:50:26;95992.41;;;4.49;100.00
78170;BME280;67412;49.892;14.490;2023-12-14T00:52:51;95995.75;;;4.51;100.00
78170;BME280;67412;49.892;14.490;2023-12-14T00:55:17;95996.59;;;4.50;100.00
78170;BME280;67412;49.892;14.490;2023-12-14T00:57:42;96004.22;;;4.50;100.00
78170;BME280;67412;49.892;14.490;2023-12-14T01:00:08;95998.28;;;4.51;100.00
78170;BME280;67412;49.892;14.490;2023-12-14T01:02:35;96007.03;;;4.30;100.00
78170;BME280;67412;49.892;14.490;2023-12-14T01:05:00;96019.84;;;4.18;100.00
78170;BME280;67412;49.892;14.490;2023-12-14T01:07:26;96027.41;;;4.24;100.00
78170;BME280;67412;49.892;14.490;2023-12-14T01:09:51;96030.75;;;4.28;100.00
78170;BME280;67412;49.892;14.490;2023-12-14T01:12:16;96036.69;;;4.30;100.00
78170;BME280;67412;49.892;14.490;2023-12-14T01:14:42;96036.69;;;4.28;100.00
78170;BME280;67412;49.892;14.490;2023-12-14T01:17:07;96034.94;;;4.32;100.00
78170;BME280;67412;49.892;14.490;2023-12-14T01:19:32;96039.19;;;4.33;100.00
78170;BME280;67412;49.892;14.490;2023-12-14T01:21:57;96040.88;;;4.32;100.00
78170;BME280;67412;49.892;14.490;2023-12-14T01:24:23;96045.91;;;4.38;100.00
78170;BME280;67412;49.892;14.490;2023-12-14T01:26:48;96049.28;;;4.42;100.00
78170;BME280;67412;49.892;14.490;2023-12-14T01:29:13;96050.97;;;4.42;100.00
78170;BME280;67412;49.892;14.490;2023-12-14T01:31:39;96046.69;;;4.45;100.00
78170;BME280;67412;49.892;14.490;2023-12-14T01:34:04;96046.72;;;4.42;100.00
78170;BME280;67412;49.892;14.490;2023-12-14T01:36:29;96045.94;;;4.35;100.00
78170;BME280;67412;49.892;14.490;2023-12-14T01:38:55;96046.81;;;4.34;100.00
78170;BME280;67412;49.892;14.490;2023-12-14T01:41:20;96038.34;;;4.34;100.00
78170;BME280;67412;49.892;14.490;2023-12-14T01:43:45;96045.13;;;4.32;100.00
78170;BME280;67412;49.892;14.490;2023-12-14T01:46:11;96046.03;;;4.26;100.00
78170;BME280;67412;49.892;14.490;2023-12-14T01:48:36;96049.50;;;4.18;100.00
78170;BME280;67412;49.892;14.490;2023-12-14T01:51:02;96051.16;;;4.20;100.00
78170;BME280;67412;49.892;14.490;2023-12-14T01:53:27;96055.44;;;4.17;100.00
78170;BME280;67412;49.892;14.490;2023-12-14T01:55:52;96058.69;;;4.32;100.00
78170;BME280;67412;49.892;14.490;2023-12-14T01:58:18;96057.06;;;4.27;100.00
78170;BME280;67412;49.892;14.490;2023-12-14T02:01:10;96059.75;;;4.12;100.00
78170;BME280;67412;49.892;14.490;2023-12-14T02:03:46;96063.94;;;4.13;100.00
78170;BME280;67412;49.892;14.490;2023-12-14T02:06:13;96060.59;;;4.11;100.00
78170;BME280;67412;49.892;14.490;2023-12-14T02:08:38;96074.16;;;4.11;100.00
78170;BME280;67412;49.892;14.490;2023-12-14T02:11:04;96074.97;;;4.13;100.00
78170;BME280;67412;49.892;14.490;2023-12-14T02:13:29;96075.00;;;4.12;100.00
78170;BME280;67412;49.892;14.490;2023-12-14T02:15:55;96080.81;;;4.23;100.00
78170;BME280;67412;49.892;14.490;2023-12-14T02:18:20;96077.41;;;4.24;100.00
78170;BME280;67412;49.892;14.490;2023-12-14T02:20:45;96089.22;;;4.28;100.00
78170;BME280;67412;49.892;14.490;2023-12-14T02:23:11;96085.81;;;4.29;100.00
78170;BME280;67412;49.892;14.490;2023-12-14T02:25:36;96085.81;;;4.29;100.00
78170;BME280;67412;49.892;14.490;2023-12-14T02:28:01;96089.22;;;4.31;100.00
78170;BME280;67412;49.892;14.490;2023-12-14T02:30:27;96091.69;;;4.35;100.00
78170;BME280;67412;49.892;14.490;2023-12-14T02:32:52;96093.38;;;4.36;100.00
78170;BME280;67412;49.892;14.490;2023-12-14T02:35:17;96095.88;;;4.39;100.00
78170;BME280;67412;49.892;14.490;2023-12-14T02:37:43;96100.16;;;4.36;100.00
78170;BME280;67412;49.892;14.490;2023-12-14T02:40:09;96100.16;;;4.36;100.00
78170;BME280;67412;49.892;14.490;2023-12-14T02:42:35;96101.09;;;4.27;100.00
78170;BME280;67412;49.892;14.490;2023-12-14T02:45:01;96102.81;;;4.27;100.00
78170;BME280;67412;49.892;14.490;2023-12-14T02:47:28;96112.06;;;4.34;100.00
78170;BME280;67412;49.892;14.490;2023-12-14T02:49:54;96109.50;;;4.32;100.00
78170;BME280;67412;49.892;14.490;2023-12-14T02:52:19;96102.81;;;4.27;100.00
78170;BME280;67412;49.892;14.490;2023-12-14T02:54:44;96109.56;;;4.28;100.00
78170;BME280;67412;49.892;14.490;2023-12-14T02:57:10;96115.47;;;4.30;100.00
78170;BME280;67412;49.892;14.490;2023-12-14T02:59:35;96114.63;;;4.29;100.00
78170;BME280;67412;49.892;14.490;2023-12-14T03:02:00;96115.47;;;4.30;100.00
78170;BME280;67412;49.892;14.490;2023-12-14T03:04:26;96118.03;;;4.30;100.00
78170;BME280;67412;49.892;14.490;2023-12-14T03:06:52;96108.69;;;4.27;100.00
78170;BME280;67412;49.892;14.490;2023-12-14T03:09:17;96119.75;;;4.26;100.00
78170;BME280;67412;49.892;14.490;2023-12-14T03:11:44;96124.84;;;4.25;100.00
78170;BME280;67412;49.892;14.490;2023-12-14T03:14:09;96126.56;;;4.23;100.00
78170;BME280;67412;49.892;14.490;2023-12-14T03:16:35;96129.88;;;4.28;100.00
78170;BME280;67412;49.892;14.490;2023-12-14T03:19:01;96134.13;;;4.30;100.00
78170;BME280;67412;49.892;14.490;2023-12-14T03:21:26;96134.91;;;4.37;100.00
78170;BME280;67412;49.892;14.490;2023-12-14T03:23:51;96134.88;;;4.40;100.00
78170;BME280;67412;49.892;14.490;2023-12-14T03:26:17;96145.88;;;4.41;100.00
78170;BME280;67412;49.892;14.490;2023-12-14T03:28:42;96142.50;;;4.42;100.00
78170;BME280;67412;49.892;14.490;2023-12-14T03:31:10;96139.88;;;4.48;100.00
78170;BME280;67412;49.892;14.490;2023-12-14T03:33:36;96141.53;;;4.52;100.00
78170;BME280;67412;49.892;14.490;2023-12-14T03:36:02;96152.53;;;4.54;100.00
78170;BME280;67412;49.892;14.490;2023-12-14T03:38:27;96150.78;;;4.59;100.00
78170;BME280;67412;49.892;14.490;2023-12-14T03:40:52;96153.34;;;4.60;100.00
78170;BME280;67412;49.892;14.490;2023-12-14T03:43:18;96160.97;;;4.60;100.00
78170;BME280;67412;49.892;14.490;2023-12-14T03:45:44;96158.41;;;4.60;100.00
78170;BME280;67412;49.892;14.490;2023-12-14T03:48:10;96159.19;;;4.65;100.00
78170;BME280;67412;49.892;14.490;2023-12-14T03:50:35;96163.53;;;4.57;100.00
78170;BME280;67412;49.892;14.490;2023-12-14T03:53:00;96165.28;;;4.52;100.00
78170;BME280;67412;49.892;14.490;2023-12-14T03:55:25;96167.81;;;4.52;100.00
78170;BME280;67412;49.892;14.490;2023-12-14T03:57:51;96168.66;;;4.51;100.00
78170;BME280;67412;49.892;14.490;2023-12-14T04:00:16;96163.66;;;4.45;100.00
78170;BME280;67412;49.892;14.490;2023-12-14T04:02:42;96169.56;;;4.44;100.00
78170;BME280;67412;49.892;14.490;2023-12-14T04:05:08;96178.06;;;4.46;100.00
78170;BME280;67412;49.892;14.490;2023-12-14T04:07:37;96184.75;;;4.52;100.00
78170;BME280;67412;49.892;14.490;2023-12-14T04:10:09;96186.44;;;4.54;100.00
78170;BME280;67412;49.892;14.490;2023-12-14T04:12:35;96183.03;;;4.55;100.00
78170;BME280;67412;49.892;14.490;2023-12-14T04:15:01;96190.66;;;4.55;100.00
78170;BME280;67412;49.892;14.490;2023-12-14T04:17:27;96190.69;;;4.52;100.00
78170;BME280;67412;49.892;14.490;2023-12-14T04:19:52;96185.63;;;4.52;100.00
78170;BME280;67412;49.892;14.490;2023-12-14T04:22:17;96200.81;;;4.58;100.00
78170;BME280;67412;49.892;14.490;2023-12-14T04:24:43;96197.41;;;4.61;100.00
78170;BME280;67412;49.892;14.490;2023-12-14T04:27:08;96210.09;;;4.64;100.00
78170;BME280;67412;49.892;14.490;2023-12-14T04:29:33;96199.88;;;4.67;100.00
78170;BME280;67412;49.892;14.490;2023-12-14T04:31:59;96207.50;;;4.68;100.00
78170;BME280;67412;49.892;14.490;2023-12-14T04:34:24;96210.84;;;4.73;100.00
78170;BME280;67412;49.892;14.490;2023-12-14T04:36:49;96220.19;;;4.71;100.00
78170;BME280;67412;49.892;14.490;2023-12-14T04:39:15;96217.66;;;4.71;100.00
78170;BME280;67412;49.892;14.490;2023-12-14T04:41:42;96219.31;;;4.75;100.00
78170;BME280;67412;49.892;14.490;2023-12-14T04:44:07;96218.53;;;4.67;100.00
78170;BME280;67412;49.892;14.490;2023-12-14T04:46:32;96225.31;;;4.67;100.00
78170;BME280;67412;49.892;14.490;2023-12-14T04:48:58;96230.41;;;4.67;100.00
78170;BME280;67412;49.892;14.490;2023-12-14T04:51:23;96232.97;;;4.64;100.00
78170;BME280;67412;49.892;14.490;2023-12-14T04:53:49;96250.78;;;4.62;100.00
78170;BME280;67412;49.892;14.490;2023-12-14T04:56:14;96244.88;;;4.60;100.00
78170;BME280;67412;49.892;14.490;2023-12-14T04:58:39;96244.06;;;4.55;100.00
78170;BME280;67412;49.892;14.490;2023-12-14T05:01:06;96253.50;;;4.41;100.00
78170;BME280;67412;49.892;14.490;2023-12-14T05:03:32;96247.75;;;4.15;100.00
78170;BME280;67412;49.892;14.490;2023-12-14T05:05:58;96257.09;;;4.10;100.00
78170;BME280;67412;49.892;14.490;2023-12-14T05:08:23;96263.84;;;4.14;100.00
78170;BME280;67412;49.892;14.490;2023-12-14T05:10:49;96262.19;;;4.11;100.00
78170;BME280;67412;49.892;14.490;2023-12-14T05:13:14;96272.38;;;4.08;100.00
78170;BME280;67412;49.892;14.490;2023-12-14T05:15:39;96273.31;;;3.90;100.00
78170;BME280;67412;49.892;14.490;2023-12-14T05:18:05;96273.38;;;3.81;100.00
78170;BME280;67412;49.892;14.490;2023-12-14T05:20:30;96280.13;;;3.82;100.00
78170;BME280;67412;49.892;14.490;2023-12-14T05:22:55;96285.22;;;3.85;100.00
78170;BME280;67412;49.892;14.490;2023-12-14T05:25:21;96285.22;;;3.76;100.00
78170;BME280;67412;49.892;14.490;2023-12-14T05:27:46;96286.06;;;3.81;100.00
78170;BME280;67412;49.892;14.490;2023-12-14T05:30:11;96287.78;;;3.76;100.00
78170;BME280;67412;49.892;14.490;2023-12-14T05:32:37;96291.19;;;3.69;100.00
78170;BME280;67412;49.892;14.490;2023-12-14T05:35:02;96294.63;;;3.58;100.00
78170;BME280;67412;49.892;14.490;2023-12-14T05:37:28;96303.94;;;3.59;100.00
78170;BME280;67412;49.892;14.490;2023-12-14T05:39:53;96303.09;;;3.58;100.00
78170;BME280;67412;49.892;14.490;2023-12-14T05:42:18;96306.47;;;3.53;100.00
78170;BME280;67412;49.892;14.490;2023-12-14T05:44:44;96311.53;;;3.57;100.00
78170;BME280;67412;49.892;14.490;2023-12-14T05:47:12;96320.00;;;3.56;100.00
78170;BME280;67412;49.892;14.490;2023-12-14T05:49:41;96313.28;;;3.52;100.00
78170;BME280;67412;49.892;14.490;2023-12-14T05:52:07;96321.72;;;3.54;100.00
78170;BME280;67412;49.892;14.490;2023-12-14T05:54:33;96334.41;;;3.54;100.00
78170;BME280;67412;49.892;14.490;2023-12-14T05:56:58;96331.06;;;3.52;100.00
78170;BME280;67412;49.892;14.490;2023-12-14T05:59:23;96336.13;;;3.52;100.00
78170;BME280;67412;49.892;14.490;2023-12-14T06:01:48;96342.03;;;3.51;100.00
78170;BME280;67412;49.892;14.490;2023-12-14T06:04:14;96338.69;;;3.43;100.00
78170;BME280;67412;49.892;14.490;2023-12-14T06:06:39;96347.13;;;3.42;100.00
78170;BME280;67412;49.892;14.490;2023-12-14T06:09:05;96355.59;;;3.47;100.00
78170;BME280;67412;49.892;14.490;2023-12-14T06:11:32;96358.16;;;3.39;100.00
78170;BME280;67412;49.892;14.490;2023-12-14T06:13:58;96366.59;;;3.40;100.00
78170;BME280;67412;49.892;14.490;2023-12-14T06:16:25;96369.97;;;3.45;100.00
78170;BME280;67412;49.892;14.490;2023-12-14T06:18:50;96363.19;;;3.50;100.00
78170;BME280;67412;49.892;14.490;2023-12-14T06:21:15;96380.13;;;3.50;100.00
78170;BME280;67412;49.892;14.490;2023-12-14T06:23:41;96369.13;;;3.46;100.00
78170;BME280;67412;49.892;14.490;2023-12-14T06:26:06;96381.00;;;3.44;100.00
78170;BME280;67412;49.892;14.490;2023-12-14T06:28:31;96381.81;;;3.46;100.00
78170;BME280;67412;49.892;14.490;2023-12-14T06:30:57;96387.75;;;3.37;100.00
78170;BME280;67412;49.892;14.490;2023-12-14T06:33:22;96394.53;;;3.25;100.00
78170;BME280;67412;49.892;14.490;2023-12-14T06:35:47;96396.22;;;3.20;100.00
78170;BME280;67412;49.892;14.490;2023-12-14T06:38:13;96399.63;;;3.22;100.00
78170;BME280;67412;49.892;14.490;2023-12-14T06:40:38;96401.31;;;3.18;100.00
78170;BME280;67412;49.892;14.490;2023-12-14T06:43:06;96406.38;;;3.23;100.00
78170;BME280;67412;49.892;14.490;2023-12-14T06:45:32;96413.16;;;3.06;100.00
78170;BME280;67412;49.892;14.490;2023-12-14T06:47:57;96416.53;;;3.08;100.00
78170;BME280;67412;49.892;14.490;2023-12-14T06:50:22;96428.38;;;3.07;100.00
78170;BME280;67412;49.892;14.490;2023-12-14T06:52:48;96431.75;;;3.09;100.00
78170;BME280;67412;49.892;14.490;2023-12-14T06:55:13;96441.06;;;3.13;100.00
78170;BME280;67412;49.892;14.490;2023-12-14T06:57:42;96436.81;;;3.23;100.00
78170;BME280;67412;49.892;14.490;2023-12-14T07:00:08;96439.38;;;3.26;100.00
78170;BME280;67412;49.892;14.490;2023-12-14T07:02:34;96448.69;;;3.22;100.00
78170;BME280;67412;49.892;14.490;2023-12-14T07:05:00;96453.75;;;3.24;100.00
78170;BME280;67412;49.892;14.490;2023-12-14T07:07:25;96459.69;;;3.33;100.00
78170;BME280;67412;49.892;14.490;2023-12-14T07:09:50;96458.81;;;3.27;100.00
78170;BME280;67412;49.892;14.490;2023-12-14T07:12:16;96463.06;;;3.31;100.00
78170;BME280;67412;49.892;14.490;2023-12-14T07:14:43;96464.78;;;3.26;100.00
78170;BME280;67412;49.892;14.490;2023-12-14T07:17:08;96470.69;;;3.29;100.00
78170;BME280;67412;49.892;14.490;2023-12-14T07:19:33;96484.22;;;3.31;100.00
78170;BME280;67412;49.892;14.490;2023-12-14T07:22:00;96488.44;;;3.38;100.00
78170;BME280;67412;49.892;14.490;2023-12-14T07:24:26;96484.22;;;3.36;100.00
78170;BME280;67412;49.892;14.490;2023-12-14T07:26:51;96484.22;;;3.36;100.00
78170;BME280;67412;49.892;14.490;2023-12-14T07:29:16;96487.59;;;3.44;100.00
78170;BME280;67412;49.892;14.490;2023-12-14T07:31:42;96494.38;;;3.48;100.00
78170;BME280;67412;49.892;14.490;2023-12-14T07:34:07;96499.47;;;3.48;100.00
78170;BME280;67412;49.892;14.490;2023-12-14T07:36:32;96508.75;;;3.51;100.00
78170;BME280;67412;49.892;14.490;2023-12-14T07:38:57;96505.38;;;3.47;100.00
78170;BME280;67412;49.892;14.490;2023-12-14T07:41:25;96507.94;;;3.41;100.00
78170;BME280;67412;49.892;14.490;2023-12-14T07:43:54;96512.16;;;3.48;100.00
78170;BME280;67412;49.892;14.490;2023-12-14T07:46:20;96509.59;;;3.42;100.00
78170;BME280;67412;49.892;14.490;2023-12-14T07:48:45;96516.38;;;3.40;100.00
78170;BME280;67412;49.892;14.490;2023-12-14T07:51:11;96523.16;;;3.41;100.00
78170;BME280;67412;49.892;14.490;2023-12-14T07:53:36;96515.53;;;3.49;100.00
78170;BME280;67412;49.892;14.490;2023-12-14T07:56:02;96520.59;;;3.55;100.00
78170;BME280;67412;49.892;14.490;2023-12-14T07:58:28;96523.13;;;3.56;100.00
78170;BME280;67412;49.892;14.490;2023-12-14T08:00:53;96524.84;;;3.63;100.00
78170;BME280;67412;49.892;14.490;2023-12-14T08:03:18;96526.53;;;3.67;100.00
78170;BME280;67412;49.892;14.490;2023-12-14T08:05:44;96525.69;;;3.70;100.00
78170;BME280;67412;49.892;14.490;2023-12-14T08:08:09;96536.69;;;3.55;100.00
78170;BME280;67412;49.892;14.490;2023-12-14T08:10:34;96544.31;;;3.61;100.00
78170;BME280;67412;49.892;14.490;2023-12-14T08:12:59;96536.69;;;3.55;100.00
78170;BME280;67412;49.892;14.490;2023-12-14T08:15:25;96549.41;;;3.60;100.00
78170;BME280;67412;49.892;14.490;2023-12-14T08:17:50;96545.16;;;3.63;100.00
78170;BME280;67412;49.892;14.490;2023-12-14T08:20:15;96556.16;;;3.68;100.00
78170;BME280;67412;49.892;14.490;2023-12-14T08:22:41;96559.56;;;3.75;100.00
78170;BME280;67412;49.892;14.490;2023-12-14T08:25:11;96562.06;;;3.79;100.00
78170;BME280;67412;49.892;14.490;2023-12-14T08:27:37;96562.91;;;3.75;100.00
78170;BME280;67412;49.892;14.490;2023-12-14T08:30:03;96561.22;;;3.76;100.00
78170;BME280;67412;49.892;14.490;2023-12-14T08:32:28;96573.94;;;3.85;100.00
78170;BME280;67412;49.892;14.490;2023-12-14T08:34:54;96579.03;;;3.80;100.00
78170;BME280;67412;49.892;14.490;2023-12-14T08:37:19;96578.16;;;3.75;100.00
78170;BME280;67412;49.892;14.490;2023-12-14T08:39:44;96577.34;;;3.70;100.00
78170;BME280;67412;49.892;14.490;2023-12-14T08:42:10;96584.94;;;3.66;100.00
78170;BME280;67412;49.892;14.490;2023-12-14T08:44:39;96595.09;;;3.72;100.00
78170;BME280;67412;49.892;14.490;2023-12-14T08:47:04;96593.41;;;3.92;100.00
78170;BME280;67412;49.892;14.490;2023-12-14T08:49:30;96599.34;;;4.11;100.00
78170;BME280;67412;49.892;14.490;2023-12-14T08:51:55;96595.91;;;4.31;100.00
78170;BME280;67412;49.892;14.490;2023-12-14T08:54:21;96599.28;;;4.35;100.00
78170;BME280;67412;49.892;14.490;2023-12-14T08:56:46;96606.94;;;4.38;100.00
78170;BME280;67412;49.892;14.490;2023-12-14T08:59:11;96621.34;;;4.36;100.00
78170;BME280;67412;49.892;14.490;2023-12-14T09:01:38;96626.41;;;4.45;100.00
78170;BME280;67412;49.892;14.490;2023-12-14T09:04:04;96623.03;;;4.49;100.00
78170;BME280;67412;49.892;14.490;2023-12-14T09:06:29;96630.59;;;4.61;100.00
78170;BME280;67412;49.892;14.490;2023-12-14T09:08:54;96625.47;;;4.81;100.00
78170;BME280;67412;49.892;14.490;2023-12-14T09:11:20;96633.06;;;5.01;100.00
78170;BME280;67412;49.892;14.490;2023-12-14T09:13:45;96638.00;;;5.29;100.00
78170;BME280;67412;49.892;14.490;2023-12-14T09:16:10;96642.19;;;5.47;100.00
78170;BME280;67412;49.892;14.490;2023-12-14T09:18:36;96641.22;;;5.63;100.00
78170;BME280;67412;49.892;14.490;2023-12-14T09:21:01;96644.53;;;5.77;100.00
78170;BME280;67412;49.892;14.490;2023-12-14T09:23:28;96652.13;;;5.85;100.00
78170;BME280;67412;49.892;14.490;2023-12-14T09:25:53;96648.75;;;5.81;100.00
78170;BME280;67412;49.892;14.490;2023-12-14T09:28:21;96653.88;;;5.88;100.00
78170;BME280;67412;49.892;14.490;2023-12-14T09:30:46;96659.75;;;5.96;100.00
78170;BME280;67412;49.892;14.490;2023-12-14T09:33:12;96658.03;;;5.98;100.00
78170;BME280;67412;49.892;14.490;2023-12-14T09:35:37;96661.47;;;5.91;100.00
78170;BME280;67412;49.892;14.490;2023-12-14T09:38:03;96663.13;;;5.99;100.00
78170;BME280;67412;49.892;14.490;2023-12-14T09:40:29;96662.25;;;6.00;100.00
78170;BME280;67412;49.892;14.490;2023-12-14T09:42:55;96666.44;;;6.10;100.00
78170;BME280;67412;49.892;14.490;2023-12-14T09:45:24;96664.63;;;6.24;100.00
78170;BME280;67412;49.892;14.490;2023-12-14T09:47:53;96666.22;;;6.38;100.00
78170;BME280;67412;49.892;14.490;2023-12-14T09:50:19;96675.59;;;6.36;100.00
78170;BME280;67412;49.892;14.490;2023-12-14T09:52:45;96680.88;;;6.14;100.00
78170;BME280;67412;49.892;14.490;2023-12-14T09:55:12;96683.47;;;6.05;100.00
78170;BME280;67412;49.892;14.490;2023-12-14T09:57:38;96685.19;;;6.06;100.00
78170;BME280;67412;49.892;14.490;2023-12-14T10:00:04;96682.72;;;5.91;100.00
78170;BME280;67412;49.892;14.490;2023-12-14T10:02:36;96688.66;;;5.89;100.00
78170;BME280;67412;49.892;14.490;2023-12-14T10:05:02;96681.88;;;5.91;100.00
78170;BME280;67412;49.892;14.490;2023-12-14T10:07:30;96685.28;;;5.90;100.00
78170;BME280;67412;49.892;14.490;2023-12-14T10:10:09;96688.72;;;5.81;100.00
78170;BME280;67412;49.892;14.490;2023-12-14T10:12:50;96687.91;;;5.71;100.00
78170;BME280;67412;49.892;14.490;2023-12-14T10:15:16;96692.16;;;5.66;100.00
78170;BME280;67412;49.892;14.490;2023-12-14T10:17:41;96690.44;;;5.73;100.00
78170;BME280;67412;49.892;14.490;2023-12-14T10:20:07;96698.91;;;5.79;100.00
78170;BME280;67412;49.892;14.490;2023-12-14T10:22:34;96692.97;;;5.76;100.00
78170;BME280;67412;49.892;14.490;2023-12-14T10:25:02;96698.91;;;5.75;100.00
78170;BME280;67412;49.892;14.490;2023-12-14T10:27:29;96698.09;;;5.73;100.00
78170;BME280;67412;49.892;14.490;2023-12-14T10:29:55;96706.63;;;5.66;100.00
78170;BME280;67412;49.892;14.490;2023-12-14T10:32:21;96708.28;;;5.73;100.00
78170;BME280;67412;49.892;14.490;2023-12-14T10:34:48;96704.00;;;5.79;100.00
78170;BME280;67412;49.892;14.490;2023-12-14T10:37:14;96702.28;;;5.78;100.00
78170;BME280;67412;49.892;14.490;2023-12-14T10:39:42;96715.91;;;5.80;100.00
78170;BME280;67412;49.892;14.490;2023-12-14T10:42:09;96721.81;;;5.82;100.00
78170;BME280;67412;49.892;14.490;2023-12-14T10:44:36;96728.59;;;5.85;100.00
78170;BME280;67412;49.892;14.490;2023-12-14T10:47:03;96727.75;;;5.81;100.00
78170;BME280;67412;49.892;14.490;2023-12-14T10:49:31;96727.75;;;5.81;100.00
78170;BME280;67412;49.892;14.490;2023-12-14T10:51:58;96728.59;;;5.85;100.00
78170;BME280;67412;49.892;14.490;2023-12-14T10:54:25;96725.22;;;5.92;100.00
78170;BME280;67412;49.892;14.490;2023-12-14T10:56:54;96737.91;;;5.97;100.00
78170;BME280;67412;49.892;14.490;2023-12-14T10:59:21;96740.47;;;5.95;100.00
78170;BME280;67412;49.892;14.490;2023-12-14T11:01:52;96749.00;;;5.90;100.00
78170;BME280;67412;49.892;14.490;2023-12-14T11:04:18;96749.03;;;5.88;100.00
78170;BME280;67412;49.892;14.490;2023-12-14T11:06:45;96750.69;;;5.89;100.00
78170;BME280;67412;49.892;14.490;2023-12-14T11:09:13;96744.72;;;5.85;100.00
78170;BME280;67412;49.892;14.490;2023-12-14T11:11:56;96748.16;;;5.84;100.00
78170;BME280;67412;49.892;14.490;2023-12-14T11:14:23;96751.53;;;5.85;100.00
78170;BME280;67412;49.892;14.490;2023-12-14T11:16:50;96758.34;;;5.81;100.00
78170;BME280;67412;49.892;14.490;2023-12-14T11:22:08;96766.00;;;5.92;100.00
78170;BME280;67412;49.892;14.490;2023-12-14T11:24:34;96766.84;;;5.83;100.00
78170;BME280;67412;49.892;14.490;2023-12-14T11:27:04;96775.31;;;5.85;100.00
78170;BME280;67412;49.892;14.490;2023-12-14T11:29:29;96773.63;;;5.89;100.00
78170;BME280;67412;49.892;14.490;2023-12-14T11:31:55;96775.34;;;5.90;100.00
78170;BME280;67412;49.892;14.490;2023-12-14T11:34:24;96786.38;;;5.95;100.00
78170;BME280;67412;49.892;14.490;2023-12-14T11:36:49;96787.22;;;5.91;100.00
78170;BME280;67412;49.892;14.490;2023-12-14T11:39:14;96783.00;;;5.87;100.00
78170;BME280;67412;49.892;14.490;2023-12-14T11:41:40;96787.25;;;5.87;100.00
78170;BME280;67412;49.892;14.490;2023-12-14T11:44:05;96784.72;;;5.88;100.00
78170;BME280;67412;49.892;14.490;2023-12-14T11:46:30;96784.66;;;5.96;100.00
78170;BME280;67412;49.892;14.490;2023-12-14T11:48:57;96785.53;;;5.90;100.00
78170;BME280;67412;49.892;14.490;2023-12-14T11:51:23;96788.91;;;5.94;100.00
78170;BME280;67412;49.892;14.490;2023-12-14T11:53:51;96787.22;;;5.96;100.00
78170;BME280;67412;49.892;14.490;2023-12-14T11:56:19;96789.78;;;5.90;100.00
78170;BME280;67412;49.892;14.490;2023-12-14T11:58:45;96792.34;;;5.87;100.00
78170;BME280;67412;49.892;14.490;2023-12-14T12:01:15;96796.59;;;5.86;100.00
78170;BME280;67412;49.892;14.490;2023-12-14T12:03:41;96789.78;;;5.87;100.00
78170;BME280;67412;49.892;14.490;2023-12-14T12:06:08;96796.59;;;5.88;100.00
78170;BME280;67412;49.892;14.490;2023-12-14T12:08:40;96804.25;;;5.86;100.00
78170;BME280;67412;49.892;14.490;2023-12-14T12:11:06;96806.78;;;5.84;100.00
78170;BME280;67412;49.892;14.490;2023-12-14T12:13:34;96806.78;;;5.80;100.00
78170;BME280;67412;49.892;14.490;2023-12-14T12:15:59;96805.91;;;5.82;100.00
78170;BME280;67412;49.892;14.490;2023-12-14T12:18:24;96809.34;;;5.78;100.00
78170;BME280;67412;49.892;14.490;2023-12-14T12:20:51;96816.13;;;5.84;100.00
78170;BME280;67412;49.892;14.490;2023-12-14T12:23:17;96811.88;;;5.81;100.00
78170;BME280;67412;49.892;14.490;2023-12-14T12:25:43;96811.88;;;5.78;100.00
78170;BME280;67412;49.892;14.490;2023-12-14T12:28:09;96812.69;;;5.85;100.00
78170;BME280;67412;49.892;14.490;2023-12-14T12:30:34;96811.03;;;5.79;100.00
78170;BME280;67412;49.892;14.490;2023-12-14T12:32:59;96816.13;;;5.84;100.00
78170;BME280;67412;49.892;14.490;2023-12-14T12:35:25;96816.97;;;5.83;100.00
78170;BME280;67412;49.892;14.490;2023-12-14T12:37:51;96811.88;;;5.86;100.00
78170;BME280;67412;49.892;14.490;2023-12-14T12:40:20;96819.53;;;5.86;100.00
78170;BME280;67412;49.892;14.490;2023-12-14T12:42:47;96819.53;;;5.78;100.00
78170;BME280;67412;49.892;14.490;2023-12-14T12:45:16;96825.47;;;5.77;100.00
78170;BME280;67412;49.892;14.490;2023-12-14T12:47:47;96828.88;;;5.78;100.00